Time;durP1;ratioP1;P1;durP2;ratioP2;P2;SDS_P1;SDS_P2;PMS_P1;PMS_P2;Temp;Humidity;BMP_temperature;BMP_pressure;BME280_temperature;BME280_humidity;BME280_pressure;Samples;Min_cycle;Max_cycle;Signal;HPM_P1;HPM_P2
2021/05/07 00:01:53;;;;;;;6.82;2.80;;;6.30;99.90;;;;;;4806152;29;20067;-74
2021/05/07 00:04:21;;;;;;;7.55;2.83;;;5.60;99.90;;;;;;4807395;29;20050;-74
2021/05/07 00:06:48;;;;;;;6.30;2.88;;;6.10;99.90;;;;;;4807669;29;20082;-74
2021/05/07 00:09:14;;;;;;;6.47;2.92;;;5.80;99.90;;;;;;4806779;29;20042;-74
2021/05/07 00:11:40;;;;;;;3.95;2.63;;;5.40;99.90;;;;;;4807367;29;20441;-74
2021/05/07 00:14:06;;;;;;;8.00;3.15;;;5.40;99.90;;;;;;4806084;29;20122;-74
2021/05/07 00:16:32;;;;;;;3.85;2.75;;;5.40;99.90;;;;;;4805923;29;20062;-74
2021/05/07 00:18:59;;;;;;;4.93;2.53;;;6.00;99.90;;;;;;4790891;29;20065;-75
2021/05/07 00:21:25;;;;;;;6.13;2.50;;;5.40;99.90;;;;;;4806269;29;20042;-74
2021/05/07 00:23:52;;;;;;;5.15;2.80;;;5.40;99.90;;;;;;4807083;29;20412;-75
2021/05/07 00:26:18;;;;;;;5.50;2.83;;;5.40;99.90;;;;;;4807124;29;20043;-72
2021/05/07 00:28:44;;;;;;;5.65;2.88;;;5.50;99.90;;;;;;4807026;29;20069;-72
2021/05/07 00:31:10;;;;;;;4.60;2.72;;;5.50;99.90;;;;;;4805964;29;20047;-73
2021/05/07 00:33:39;;;;;;;4.10;3.15;;;5.40;99.90;;;;;;4807141;29;20043;-71
2021/05/07 00:36:05;;;;;;;5.47;3.40;;;5.40;99.90;;;;;;4804194;29;20068;-70
2021/05/07 00:38:31;;;;;;;7.28;3.40;;;5.40;99.90;;;;;;4790954;29;20047;-72
2021/05/07 00:40:56;;;;;;;6.22;3.17;;;5.40;99.90;;;;;;4805912;29;20068;-72
2021/05/07 00:43:22;;;;;;;7.93;3.53;;;5.40;99.90;;;;;;4806029;29;20039;-72
2021/05/07 00:45:48;;;;;;;5.38;3.20;;;5.40;99.90;;;;;;4806418;29;20518;-72
2021/05/07 00:48:19;;;;;;;5.43;3.65;;;6.20;99.90;;;;;;4805959;29;20067;-72
2021/05/07 00:50:47;;;;;;;6.13;3.80;;;5.40;99.90;;;;;;4806605;29;20077;-73
2021/05/07 00:53:14;;;;;;;6.72;3.38;;;5.40;99.90;;;;;;4807023;29;20038;-73
2021/05/07 00:55:40;;;;;;;5.35;3.10;;;5.40;99.90;;;;;;4806617;29;20099;-73
2021/05/07 00:58:06;;;;;;;4.85;3.20;;;5.50;99.90;;;;;;4805921;29;20043;-73
2021/05/07 01:00:32;;;;;;;5.38;3.28;;;5.40;99.90;;;;;;4802660;29;20412;-73
2021/05/07 01:02:59;;;;;;;5.82;2.97;;;5.30;99.90;;;;;;4806493;29;20054;-73
2021/05/07 01:05:26;;;;;;;4.85;2.67;;;5.30;99.90;;;;;;4806260;29;20042;-73
2021/05/07 01:07:53;;;;;;;6.05;3.03;;;5.20;99.90;;;;;;4805497;29;20042;-73
2021/05/07 01:10:19;;;;;;;6.68;2.80;;;5.30;99.90;;;;;;4806491;29;20065;-73
2021/05/07 01:12:46;;;;;;;5.25;2.85;;;6.00;99.90;;;;;;4806405;29;20139;-73
2021/05/07 01:15:21;;;;;;;4.28;2.33;;;5.30;99.90;;;;;;4804938;29;20396;-73
2021/05/07 01:17:49;;;;;;;4.37;2.43;;;5.30;99.90;;;;;;4805984;29;20432;-74
2021/05/07 01:20:17;;;;;;;5.32;2.90;;;5.90;99.90;;;;;;4805576;29;20049;-73
2021/05/07 01:22:45;;;;;;;4.22;2.55;;;5.50;99.90;;;;;;4806427;29;20062;-73
2021/05/07 01:25:18;;;;;;;6.82;2.50;;;5.30;99.90;;;;;;4799412;29;20051;-73
2021/05/07 01:27:45;;;;;;;3.15;2.55;;;5.20;99.90;;;;;;4806176;29;20043;-73
2021/05/07 01:30:15;;;;;;;5.00;3.00;;;5.10;99.90;;;;;;4806020;29;20050;-73
2021/05/07 01:32:43;;;;;;;4.65;2.75;;;5.10;99.90;;;;;;4804088;29;20501;-74
2021/05/07 01:35:15;;;;;;;7.45;2.92;;;5.10;99.90;;;;;;4805874;29;20047;-74
2021/05/07 01:37:43;;;;;;;4.72;2.83;;;5.10;99.90;;;;;;4808574;29;20045;-74
2021/05/07 01:40:23;;;;;;;6.00;2.90;;;5.20;99.90;;;;;;4805923;29;20459;-74
2021/05/07 01:42:50;;;;;;;4.45;2.72;;;5.20;99.90;;;;;;4795234;29;20435;-74
2021/05/07 01:45:20;;;;;;;9.05;3.00;;;5.20;99.90;;;;;;4805981;29;20091;-74
2021/05/07 01:47:46;;;;;;;6.53;3.03;;;5.20;99.90;;;;;;4802118;29;20062;-74
2021/05/07 01:50:16;;;;;;;4.40;2.78;;;5.30;99.90;;;;;;4799041;29;20062;-74
2021/05/07 01:52:42;;;;;;;4.45;3.17;;;5.30;99.90;;;;;;4805445;29;20096;-74
2021/05/07 01:55:13;;;;;;;6.25;2.92;;;5.90;99.90;;;;;;4805920;29;20047;-74
2021/05/07 01:57:40;;;;;;;4.82;2.67;;;5.30;99.90;;;;;;4803322;29;20046;-74
2021/05/07 02:00:08;;;;;;;4.30;2.90;;;5.80;99.90;;;;;;4804550;29;20054;-74
2021/05/07 02:02:34;;;;;;;5.15;2.95;;;5.10;99.90;;;;;;4804348;29;20649;-74
2021/05/07 02:05:00;;;;;;;3.35;2.53;;;5.10;99.90;;;;;;4799486;29;20051;-74
2021/05/07 02:07:27;;;;;;;8.00;2.95;;;5.70;99.90;;;;;;4800121;29;20381;-74
2021/05/07 02:09:53;;;;;;;3.65;2.72;;;5.00;99.90;;;;;;4801332;29;20035;-74
2021/05/07 02:12:19;;;;;;;5.60;2.75;;;5.90;99.90;;;;;;4784940;29;20069;-75
2021/05/07 02:14:45;;;;;;;4.20;3.00;;;5.50;99.90;;;;;;4802894;29;20077;-75
2021/05/07 02:17:13;;;;;;;3.97;2.65;;;5.10;99.90;;;;;;4802761;29;20064;-77
2021/05/07 02:19:39;;;;;;;4.68;2.88;;;5.10;99.90;;;;;;4805173;29;20078;-77
2021/05/07 02:22:05;;;;;;;3.15;2.42;;;5.00;99.90;;;;;;4805340;29;20165;-77
2021/05/07 02:24:31;;;;;;;3.33;1.98;;;5.10;99.90;;;;;;4805115;29;20468;-77
2021/05/07 02:26:56;;;;;;;3.00;2.30;;;5.10;99.90;;;;;;4804800;29;20043;-77
2021/05/07 02:29:22;;;;;;;2.35;1.50;;;5.10;99.90;;;;;;4805432;29;20039;-77
2021/05/07 02:31:48;;;;;;;3.38;1.73;;;5.10;99.90;;;;;;4804639;29;20063;-76
2021/05/07 02:34:15;;;;;;;3.90;1.52;;;5.00;99.90;;;;;;4793720;29;20043;-75
2021/05/07 02:36:41;;;;;;;1.13;0.80;;;4.90;99.90;;;;;;4804260;29;20043;-75
2021/05/07 02:39:11;;;;;;;3.80;1.45;;;4.70;99.90;;;;;;4804208;29;20039;-75
2021/05/07 02:41:37;;;;;;;3.33;1.00;;;4.90;99.90;;;;;;4803989;29;20084;-75
2021/05/07 02:44:04;;;;;;;2.38;1.20;;;4.90;99.90;;;;;;4805106;29;20071;-75
2021/05/07 02:46:34;;;;;;;1.88;0.85;;;4.90;99.90;;;;;;4803765;29;20115;-75
2021/05/07 02:49:02;;;;;;;1.92;0.88;;;5.90;99.90;;;;;;4803780;29;20065;-73
2021/05/07 02:51:29;;;;;;;1.20;0.80;;;4.90;99.90;;;;;;4804938;29;20038;-73
2021/05/07 02:53:58;;;;;;;2.53;0.80;;;5.60;99.90;;;;;;4805138;29;20042;-73
2021/05/07 02:56:24;;;;;;;2.22;0.82;;;4.90;99.90;;;;;;4804037;29;20099;-73
2021/05/07 02:58:50;;;;;;;1.40;0.95;;;5.80;99.90;;;;;;4803656;29;20396;-73
2021/05/07 03:01:17;;;;;;;1.38;0.80;;;4.90;99.90;;;;;;4789102;29;20054;-73
2021/05/07 03:03:43;;;;;;;1.98;0.85;;;4.90;99.90;;;;;;4801251;29;20093;-73
2021/05/07 03:06:09;;;;;;;3.47;0.98;;;4.90;99.90;;;;;;4804795;29;20455;-73
2021/05/07 03:08:37;;;;;;;1.20;0.75;;;5.50;99.90;;;;;;4805073;29;20111;-73
2021/05/07 03:11:03;;;;;;;1.77;0.80;;;4.80;99.90;;;;;;4805067;29;20039;-73
2021/05/07 03:13:29;;;;;;;2.28;1.00;;;5.00;99.90;;;;;;4805154;29;20046;-73
2021/05/07 03:15:55;;;;;;;2.55;1.10;;;4.90;99.90;;;;;;4803591;29;20041;-74
2021/05/07 03:18:22;;;;;;;1.45;0.90;;;4.80;99.90;;;;;;4804132;29;20496;-74
2021/05/07 03:20:49;;;;;;;2.10;1.00;;;4.80;99.90;;;;;;4803606;29;20039;-75
2021/05/07 03:23:15;;;;;;;2.20;1.00;;;5.10;99.90;;;;;;4804977;29;20091;-76
2021/05/07 03:25:41;;;;;;;1.80;1.00;;;4.90;99.90;;;;;;4803314;29;20057;-75
2021/05/07 03:28:08;;;;;;;2.50;1.05;;;4.90;99.90;;;;;;4804721;29;20507;-73
2021/05/07 03:30:36;;;;;;;3.13;1.20;;;5.10;99.90;;;;;;4803830;29;20134;-76
2021/05/07 03:33:04;;;;;;;3.20;1.10;;;4.90;99.90;;;;;;4802010;29;20067;-75
2021/05/07 03:35:31;;;;;;;2.75;0.90;;;4.90;99.90;;;;;;4804843;29;20063;-75
2021/05/07 03:37:57;;;;;;;2.13;1.10;;;4.90;99.90;;;;;;4803707;29;20065;-75
2021/05/07 03:40:23;;;;;;;3.97;1.17;;;4.90;99.90;;;;;;4803657;29;20045;-75
2021/05/07 03:42:49;;;;;;;3.00;1.35;;;4.90;99.90;;;;;;4804307;29;20043;-76
2021/05/07 03:45:16;;;;;;;4.25;1.27;;;4.90;99.90;;;;;;4795016;29;20411;-75
2021/05/07 03:47:43;;;;;;;2.72;1.48;;;4.90;99.90;;;;;;4806380;29;20506;-77
2021/05/07 03:50:13;;;;;;;5.32;1.45;;;4.90;99.90;;;;;;4807446;29;20066;-77
2021/05/07 03:52:41;;;;;;;3.33;1.30;;;4.90;99.90;;;;;;4807868;29;20504;-76
2021/05/07 03:55:09;;;;;;;2.05;1.13;;;4.90;99.90;;;;;;4807675;29;20071;-76
2021/05/07 03:57:35;;;;;;;3.17;1.00;;;5.00;99.90;;;;;;4806405;29;20121;-76
2021/05/07 04:00:02;;;;;;;2.53;1.20;;;5.70;99.90;;;;;;4807446;29;20122;-76
2021/05/07 04:02:28;;;;;;;2.83;1.10;;;5.00;99.90;;;;;;4807844;29;20043;-77
2021/05/07 04:04:55;;;;;;;2.40;1.20;;;4.90;99.90;;;;;;4801346;29;20073;-76
2021/05/07 04:07:21;;;;;;;2.60;0.93;;;5.00;99.90;;;;;;4806536;29;20039;-75
2021/05/07 04:13:29;;;;;;;3.67;1.30;;;5.70;99.90;;;;;;4806212;29;20720;-77
2021/05/07 04:15:09;;;;;;;2.45;1.20;;;4.90;99.90;;;;;;4807383;29;20070;-77
2021/05/07 04:17:34;;;;;;;4.03;1.10;;;4.90;99.90;;;;;;4807258;29;20532;-76
2021/05/07 04:20:00;;;;;;;4.15;1.13;;;4.80;99.90;;;;;;4805989;29;20038;-76
2021/05/07 04:22:27;;;;;;;2.30;1.10;;;4.90;99.90;;;;;;4807138;29;20042;-76
2021/05/07 04:24:53;;;;;;;2.35;1.02;;;4.80;99.90;;;;;;4807438;29;20078;-76
2021/05/07 04:27:19;;;;;;;2.90;1.20;;;4.80;99.90;;;;;;4807315;29;20043;-76
2021/05/07 04:29:45;;;;;;;1.52;1.00;;;5.00;99.90;;;;;;4807485;29;20050;-76
2021/05/07 04:32:11;;;;;;;2.55;0.85;;;4.80;99.90;;;;;;4806940;29;20050;-76
2021/05/07 04:34:36;;;;;;;2.10;0.90;;;4.70;99.90;;;;;;4806025;29;20047;-76
2021/05/07 04:37:03;;;;;;;2.65;0.95;;;5.20;99.90;;;;;;4805953;29;20039;-76
2021/05/07 04:39:29;;;;;;;1.63;0.80;;;4.70;99.90;;;;;;4791413;29;20091;-76
2021/05/07 04:41:55;;;;;;;1.40;0.80;;;4.70;99.90;;;;;;4806876;29;20127;-74
2021/05/07 04:44:20;;;;;;;2.28;0.85;;;4.60;99.90;;;;;;4807114;29;20117;-74
2021/05/07 04:46:46;;;;;;;3.10;0.80;;;5.30;99.90;;;;;;4806035;29;20404;-74
2021/05/07 04:49:12;;;;;;;1.40;0.77;;;5.30;99.90;;;;;;4807092;29;20527;-74
2021/05/07 04:51:38;;;;;;;4.75;0.80;;;4.90;99.90;;;;;;4806638;29;20122;-74
2021/05/07 04:54:04;;;;;;;1.80;0.90;;;4.80;99.90;;;;;;4805155;29;20122;-74
2021/05/07 04:56:30;;;;;;;2.30;0.98;;;4.80;99.90;;;;;;4804545;29;20038;-74
2021/05/07 04:58:56;;;;;;;2.60;1.10;;;4.80;99.90;;;;;;4806490;29;20039;-74
2021/05/07 05:01:22;;;;;;;2.38;1.38;;;4.80;99.90;;;;;;4805432;29;20396;-73
2021/05/07 05:03:48;;;;;;;1.75;0.90;;;5.00;99.90;;;;;;4806788;29;20118;-73
2021/05/07 05:06:15;;;;;;;1.30;0.90;;;5.00;99.90;;;;;;4806308;29;20050;-76
2021/05/07 05:08:41;;;;;;;1.80;1.08;;;5.10;99.90;;;;;;4806818;29;20077;-76
2021/05/07 05:11:07;;;;;;;2.30;0.93;;;5.10;99.90;;;;;;4801176;29;20036;-75
2021/05/07 05:13:36;;;;;;;2.30;1.10;;;5.10;99.90;;;;;;4801548;29;20046;-76
2021/05/07 05:16:01;;;;;;;2.67;1.15;;;5.10;99.90;;;;;;4806430;29;20043;-76
2021/05/07 05:18:32;;;;;;;2.30;1.27;;;6.00;99.90;;;;;;4806317;29;20055;-76
2021/05/07 05:21:00;;;;;;;3.83;1.35;;;5.10;99.90;;;;;;4790163;29;20146;-76
2021/05/07 05:23:28;;;;;;;2.28;1.10;;;5.10;99.90;;;;;;4806167;29;20070;-76
2021/05/07 05:25:54;;;;;;;2.42;1.00;;;5.20;99.90;;;;;;4804001;29;20066;-76
2021/05/07 05:28:20;;;;;;;2.72;1.10;;;6.00;99.90;;;;;;4802119;29;20043;-75
2021/05/07 05:30:47;;;;;;;3.05;1.10;;;5.50;99.90;;;;;;4806595;29;20457;-75
2021/05/07 05:33:13;;;;;;;3.63;1.25;;;5.50;99.90;;;;;;4804840;29;20039;-75
2021/05/07 05:35:39;;;;;;;2.42;1.20;;;5.60;99.90;;;;;;4804752;29;20450;-76
2021/05/07 05:38:06;;;;;;;1.75;1.00;;;5.60;99.90;;;;;;4804833;29;20065;-76
2021/05/07 05:40:32;;;;;;;4.70;0.98;;;5.70;99.90;;;;;;4805914;29;20043;-76
2021/05/07 05:42:58;;;;;;;4.53;1.20;;;5.80;99.90;;;;;;4784543;29;20046;-76
2021/05/07 05:45:25;;;;;;;4.00;1.10;;;5.80;99.90;;;;;;4802914;29;20157;-76
2021/05/07 05:48:13;;;;;;;1.30;0.80;;;5.80;99.90;;;;;;4805266;29;20399;-77
2021/05/07 05:50:48;;;;;;;3.33;1.20;;;5.80;99.90;;;;;;4804607;29;20047;-75
2021/05/07 05:53:14;;;;;;;3.80;1.02;;;5.80;99.90;;;;;;4803269;29;20113;-77
2021/05/07 05:55:40;;;;;;;4.60;1.20;;;5.90;99.90;;;;;;4804808;29;20130;-76
2021/05/07 05:58:07;;;;;;;3.42;1.40;;;6.40;99.90;;;;;;4799777;29;20043;-75
2021/05/07 06:00:33;;;;;;;2.78;1.35;;;6.00;99.90;;;;;;4801689;29;20055;-75
2021/05/07 06:02:59;;;;;;;4.63;1.48;;;6.10;99.90;;;;;;4800923;29;20122;-75
2021/05/07 06:05:26;;;;;;;4.53;1.60;;;6.10;99.90;;;;;;4805113;29;20114;-75
2021/05/07 06:07:52;;;;;;;4.28;1.50;;;6.60;99.90;;;;;;4804869;29;20045;-75
2021/05/07 06:10:19;;;;;;;4.75;1.55;;;6.20;99.90;;;;;;4805167;29;20096;-75
2021/05/07 06:12:46;;;;;;;5.60;1.75;;;6.20;99.90;;;;;;4803725;29;20507;-80
2021/05/07 06:15:13;;;;;;;3.55;1.52;;;6.20;99.90;;;;;;4804312;29;20038;-81
2021/05/07 06:17:41;;;;;;;3.25;1.65;;;6.20;99.90;;;;;;4805256;29;20065;-78
2021/05/07 06:20:12;;;;;;;2.95;1.40;;;6.30;99.90;;;;;;4804786;29;20081;-75
2021/05/07 06:22:47;;;;;;;3.03;1.50;;;6.30;99.90;;;;;;4789059;29;20066;-83
2021/05/07 06:25:16;;;;;;;2.97;1.30;;;6.40;99.90;;;;;;4804985;29;20051;-83
2021/05/07 06:27:42;;;;;;;4.22;1.70;;;6.50;99.90;;;;;;4800425;29;20070;-76
2021/05/07 06:30:13;;;;;;;3.78;1.63;;;7.40;99.90;;;;;;4798177;29;20074;-76
2021/05/07 06:32:39;;;;;;;3.15;1.55;;;6.50;99.90;;;;;;4795596;29;20039;-76
2021/05/07 06:35:06;;;;;;;3.50;1.80;;;7.10;99.90;;;;;;4802136;29;20050;-76
2021/05/07 06:37:39;;;;;;;3.65;1.80;;;6.60;99.90;;;;;;4801281;29;20179;-74
2021/05/07 06:40:09;;;;;;;4.43;1.80;;;6.70;99.90;;;;;;4801245;29;20499;-74
2021/05/07 06:42:36;;;;;;;2.65;1.80;;;6.70;99.90;;;;;;4801052;29;20051;-75
2021/05/07 06:45:06;;;;;;;3.13;1.45;;;6.80;99.90;;;;;;4807150;29;20507;-76
2021/05/07 06:47:32;;;;;;;3.97;1.83;;;6.70;99.90;;;;;;4798939;29;20519;-76
2021/05/07 06:49:58;;;;;;;3.75;1.75;;;6.70;99.90;;;;;;4801552;29;20042;-74
2021/05/07 06:52:23;;;;;;;3.58;1.70;;;6.70;99.90;;;;;;4800109;29;20692;-75
2021/05/07 06:54:50;;;;;;;4.00;1.60;;;6.70;99.90;;;;;;4801748;29;20082;-76
2021/05/07 06:57:16;;;;;;;3.40;1.55;;;6.70;99.90;;;;;;4802445;29;20035;-76
2021/05/07 06:59:43;;;;;;;4.93;1.67;;;6.70;99.90;;;;;;4800987;29;20035;-76
2021/05/07 07:02:12;;;;;;;4.18;1.73;;;6.80;99.90;;;;;;4800370;29;20561;-74
2021/05/07 07:04:38;;;;;;;3.88;2.20;;;6.80;99.90;;;;;;4771679;29;20043;-74
2021/05/07 07:07:03;;;;;;;4.75;1.80;;;6.80;99.90;;;;;;4800386;29;20039;-75
2021/05/07 07:09:29;;;;;;;3.17;1.60;;;6.90;99.90;;;;;;4799616;29;20092;-75
2021/05/07 07:11:55;;;;;;;3.85;1.80;;;6.90;99.90;;;;;;4799972;29;20035;-75
2021/05/07 07:14:22;;;;;;;3.00;1.77;;;7.30;99.90;;;;;;4800107;29;20449;-75
2021/05/07 07:16:50;;;;;;;4.68;2.00;;;7.00;99.90;;;;;;4800609;29;20141;-76
2021/05/07 07:19:16;;;;;;;4.65;1.77;;;7.10;99.90;;;;;;4804152;29;20138;-75
2021/05/07 07:21:42;;;;;;;5.32;1.92;;;7.20;99.90;;;;;;4802879;29;20043;-76
2021/05/07 07:24:08;;;;;;;4.28;1.83;;;7.20;99.90;;;;;;4804543;29;20077;-75
2021/05/07 07:26:34;;;;;;;4.53;2.00;;;7.30;99.90;;;;;;4804263;29;20066;-76
2021/05/07 07:29:00;;;;;;;3.55;1.77;;;7.20;99.90;;;;;;4802299;29;20068;-75
2021/05/07 07:31:26;;;;;;;5.82;1.80;;;7.20;99.90;;;;;;4803866;29;20051;-79
2021/05/07 07:33:52;;;;;;;4.25;1.90;;;7.20;99.90;;;;;;4799087;29;20050;-79
2021/05/07 07:36:18;;;;;;;3.78;1.90;;;7.30;99.90;;;;;;4801153;29;20074;-80
2021/05/07 07:38:44;;;;;;;6.05;1.83;;;7.30;99.90;;;;;;4802347;29;20081;-80
2021/05/07 07:41:16;;;;;;;4.50;2.10;;;7.30;99.90;;;;;;4801593;29;20067;-79
2021/05/07 07:43:44;;;;;;;4.43;2.10;;;7.30;99.90;;;;;;4801388;29;20039;-78
2021/05/07 07:46:10;;;;;;;7.40;2.05;;;7.50;99.90;;;;;;4801570;29;20122;-79
2021/05/07 07:48:36;;;;;;;4.45;2.60;;;7.40;99.90;;;;;;4803483;29;20159;-79
2021/05/07 07:51:02;;;;;;;6.38;2.22;;;7.50;99.90;;;;;;4801009;29;20095;-79
2021/05/07 07:53:28;;;;;;;5.70;2.42;;;7.60;99.90;;;;;;4802718;29;20034;-75
2021/05/07 07:55:58;;;;;;;4.10;2.40;;;7.60;99.90;;;;;;4801110;29;20454;-84
2021/05/07 07:58:31;;;;;;;5.25;2.20;;;7.70;99.90;;;;;;4806103;29;20409;-84
2021/05/07 08:01:00;;;;;;;4.82;2.67;;;7.90;99.90;;;;;;4799437;29;20041;-83
2021/05/07 08:03:26;;;;;;;4.55;2.45;;;7.50;99.90;;;;;;4805697;29;20095;-71
2021/05/07 08:05:55;;;;;;;8.98;2.20;;;7.50;99.90;;;;;;4800700;29;20047;-71
2021/05/07 08:08:21;;;;;;;4.13;2.03;;;7.50;99.90;;;;;;4799421;29;20046;-79
2021/05/07 08:10:47;;;;;;;7.53;2.53;;;7.70;99.90;;;;;;4803668;29;20081;-80
2021/05/07 08:13:16;;;;;;;6.57;2.50;;;7.70;99.90;;;;;;4801275;29;20446;-79
2021/05/07 08:15:54;;;;;;;4.97;2.20;;;7.80;99.90;;;;;;4803878;29;20108;-79
2021/05/07 08:18:21;;;;;;;5.13;2.40;;;7.80;99.90;;;;;;4801699;29;20377;-80
2021/05/07 08:20:47;;;;;;;5.55;2.50;;;8.30;99.90;;;;;;4802835;29;20468;-79
2021/05/07 08:29:51;;;;;;;3.97;2.30;;;8.00;99.90;;;;;;4791405;29;20138;-81
2021/05/07 08:32:17;;;;;;;5.65;2.40;;;8.20;99.90;;;;;;4801139;29;20118;-81
2021/05/07 08:34:44;;;;;;;5.15;1.60;;;8.30;99.90;;;;;;4802153;29;20047;-82
2021/05/07 08:37:15;;;;;;;5.15;1.75;;;8.30;99.90;;;;;;4803125;29;20077;-81
2021/05/07 08:40:08;;;;;;;3.60;2.10;;;8.30;99.60;;;;;;4799874;29;20038;-81
2021/05/07 08:43:05;;;;;;;9.07;1.98;;;8.30;99.10;;;;;;4802296;29;20124;-76
2021/05/07 08:45:34;;;;;;;4.70;1.30;;;8.60;99.30;;;;;;4786516;29;20046;-75
2021/05/07 08:48:01;;;;;;;5.45;1.70;;;8.30;97.40;;;;;;4801771;29;20039;-80
2021/05/07 08:50:27;;;;;;;4.28;1.50;;;8.20;97.50;;;;;;4803291;29;20163;-79
2021/05/07 08:52:54;;;;;;;4.25;1.10;;;9.20;97.50;;;;;;4802399;29;20454;-79
2021/05/07 08:55:19;;;;;;;3.92;1.50;;;8.40;96.50;;;;;;4802035;29;20157;-79
2021/05/07 08:57:45;;;;;;;7.20;1.30;;;8.40;96.80;;;;;;4785350;29;20361;-73
2021/05/07 09:00:13;;;;;;;6.35;1.27;;;8.50;96.30;;;;;;4800084;29;20051;-74
2021/05/07 09:02:39;;;;;;;2.67;1.08;;;8.50;93.50;;;;;;4801852;29;20107;-79
2021/05/07 09:05:06;;;;;;;5.05;1.33;;;8.60;93.60;;;;;;4802426;29;20084;-80
2021/05/07 09:07:33;;;;;;;4.13;2.03;;;8.60;94.10;;;;;;4802902;29;20043;-77
2021/05/07 09:10:03;;;;;;;3.83;1.20;;;8.70;94.10;;;;;;4802596;29;20058;-81
2021/05/07 09:12:39;;;;;;;2.65;1.23;;;8.70;95.00;;;;;;4803491;29;20659;-80
2021/05/07 09:15:08;;;;;;;2.95;1.13;;;8.80;94.00;;;;;;4801706;29;20039;-79
2021/05/07 09:17:36;;;;;;;3.85;1.20;;;8.80;93.50;;;;;;4801609;29;20046;-78
2021/05/07 09:20:06;;;;;;;3.58;1.17;;;8.80;93.00;;;;;;4800867;29;20122;-79
2021/05/07 09:22:32;;;;;;;3.83;1.15;;;8.80;93.80;;;;;;4804698;29;20069;-80
2021/05/07 09:25:13;;;;;;;3.17;1.05;;;8.90;93.30;;;;;;4805437;29;20058;-80
2021/05/07 09:27:40;;;;;;;3.55;1.13;;;9.00;92.10;;;;;;4806947;29;20054;-73
2021/05/07 09:30:22;;;;;;;2.10;0.98;;;9.00;93.40;;;;;;4806107;29;20038;-73
2021/05/07 09:32:53;;;;;;;2.55;0.80;;;9.00;91.20;;;;;;4794407;29;20133;-78
2021/05/07 09:35:26;;;;;;;2.08;0.90;;;9.00;91.70;;;;;;4800765;29;20179;-78
2021/05/07 09:38:06;;;;;;;3.40;1.00;;;9.00;92.00;;;;;;4800200;29;20047;-78
2021/05/07 09:40:33;;;;;;;2.55;1.13;;;9.40;93.40;;;;;;4802208;29;20516;-78
2021/05/07 09:43:12;;;;;;;3.38;1.25;;;9.10;90.80;;;;;;4800220;29;21250;-79
2021/05/07 09:45:48;;;;;;;3.28;1.00;;;9.20;91.00;;;;;;4800217;29;20140;-78
2021/05/07 09:48:23;;;;;;;3.50;1.00;;;9.30;91.50;;;;;;4803246;29;20097;-78
2021/05/07 09:50:54;;;;;;;2.72;0.93;;;8.90;91.70;;;;;;4787162;29;20081;-81
2021/05/07 09:53:22;;;;;;;3.92;1.02;;;9.40;91.70;;;;;;4804661;29;20145;-81
2021/05/07 09:56:00;;;;;;;2.75;1.02;;;9.50;91.20;;;;;;4801548;29;20047;-82
2021/05/07 09:58:50;;;;;;;4.18;0.98;;;9.90;91.30;;;;;;4800840;29;20492;-82
2021/05/07 10:01:16;;;;;;;2.65;0.95;;;9.00;91.60;;;;;;4799464;29;20031;-81
2021/05/07 10:03:42;;;;;;;3.15;1.38;;;9.20;92.90;;;;;;4799504;29;20057;-80
2021/05/07 10:06:08;;;;;;;4.80;1.20;;;9.20;92.80;;;;;;4803150;29;20194;-81
2021/05/07 10:08:47;;;;;;;1.50;0.90;;;9.30;92.70;;;;;;4800117;29;20113;-81
2021/05/07 10:11:14;;;;;;;2.75;0.90;;;9.40;90.30;;;;;;4802267;29;20054;-81
2021/05/07 10:13:56;;;;;;;13.68;1.10;;;9.50;91.30;;;;;;4797621;29;20042;-82
2021/05/07 10:16:33;;;;;;;6.30;1.90;;;9.60;91.10;;;;;;4801782;29;20516;-81
2021/05/07 10:19:42;;;;;;;3.55;1.15;;;9.60;85.70;;;;;;4800876;29;20066;-81
2021/05/07 10:22:11;;;;;;;;;;;8.70;84.90;;;;;;4801769;29;20089;-81
2021/05/07 10:24:39;;;;;;;3.47;1.20;;;9.60;84.20;;;;;;4800782;29;20414;-82
2021/05/07 10:27:19;;;;;;;2.20;0.90;;;9.70;87.90;;;;;;4797535;29;20047;-82
2021/05/07 10:29:56;;;;;;;2.13;0.93;;;9.90;87.60;;;;;;4801808;29;20070;-82
2021/05/07 10:32:34;;;;;;;3.75;0.98;;;9.80;88.00;;;;;;4798721;29;20101;-82
2021/05/07 10:35:07;;;;;;;2.05;0.90;;;9.70;90.00;;;;;;4799276;29;20480;-84
2021/05/07 10:37:42;;;;;;;7.00;1.10;;;9.60;90.60;;;;;;4813417;29;20424;-75
2021/05/07 10:40:09;;;;;;;2.47;0.88;;;10.60;89.10;;;;;;4800863;29;20445;-74
2021/05/07 10:42:35;;;;;;;3.10;1.10;;;9.70;86.50;;;;;;4786849;29;20049;-81
2021/05/07 10:45:04;;;;;;;3.65;1.00;;;9.80;88.10;;;;;;4801348;29;20046;-80
2021/05/07 10:47:34;;;;;;;4.18;1.00;;;9.70;89.60;;;;;;4803706;29;20080;-80
2021/05/07 10:50:14;;;;;;;2.92;1.20;;;9.70;91.00;;;;;;4804029;29;20047;-80
2021/05/07 10:52:40;;;;;;;1.75;1.05;;;9.70;91.50;;;;;;4805841;29;20054;-81
2021/05/07 10:55:08;;;;;;;5.82;1.52;;;9.80;92.20;;;;;;4808820;29;20066;-80
2021/05/07 10:57:39;;;;;;;5.57;1.00;;;9.90;91.70;;;;;;4805104;29;20035;-81
2021/05/07 11:00:15;;;;;;;7.10;1.30;;;10.00;91.90;;;;;;4806916;29;20062;-82
2021/05/07 11:02:51;;;;;;;4.07;0.90;;;10.10;92.50;;;;;;4787179;29;20047;-81
2021/05/07 11:05:37;;;;;;;2.70;1.10;;;9.50;90.60;;;;;;4805178;29;20042;-81
2021/05/07 11:08:03;;;;;;;6.00;1.38;;;9.90;90.70;;;;;;4807586;29;20070;-81
2021/05/07 11:10:30;;;;;;;3.55;0.75;;;9.80;90.80;;;;;;4807418;29;20051;-83
2021/05/07 11:13:01;;;;;;;9.18;1.00;;;9.70;90.00;;;;;;4808578;29;20055;-82
2021/05/07 11:15:33;;;;;;;5.00;1.13;;;9.70;88.60;;;;;;4807014;29;20503;-80
2021/05/07 11:18:28;;;;;;;3.03;0.90;;;9.90;89.80;;;;;;4807377;29;20158;-81
2021/05/07 11:20:54;;;;;;;3.90;1.10;;;10.00;90.60;;;;;;4803689;29;20043;-78
2021/05/07 11:23:41;;;;;;;;;;;;;;;;;;;;;
2021/05/07 11:26:08;;;;;;;2.72;1.10;;;9.90;88.70;;;;;;4801002;29;20142;-80
2021/05/07 11:28:47;;;;;;;2.40;0.82;;;10.90;88.60;;;;;;4804636;29;20035;-77
2021/05/07 11:31:35;;;;;;;3.50;0.90;;;9.90;84.90;;;;;;4820982;29;20045;-81
2021/05/07 11:34:02;;;;;;;3.72;0.98;;;10.00;86.70;;;;;;4799866;29;20055;-81
2021/05/07 11:36:33;;;;;;;4.32;0.98;;;10.10;87.50;;;;;;4806724;29;20043;-81
2021/05/07 11:38:59;;;;;;;4.22;1.00;;;10.10;86.60;;;;;;4806496;29;20043;-81
2021/05/07 11:41:41;;;;;;;3.42;0.88;;;10.00;87.40;;;;;;4805866;29;20042;-82
2021/05/07 11:44:31;;;;;;;5.82;1.17;;;10.00;89.30;;;;;;4795357;29;20507;-81
2021/05/07 11:47:07;;;;;;;7.57;1.35;;;10.90;90.10;;;;;;4807538;29;20484;-79
2021/05/07 11:50:00;;;;;;;2.63;1.13;;;10.30;90.10;;;;;;4808575;29;20046;-79
2021/05/07 11:52:40;;;;;;;6.50;1.15;;;9.90;89.90;;;;;;4799956;29;20047;-80
2021/05/07 11:55:41;;;;;;;3.78;1.30;;;10.40;88.00;;;;;;4805748;29;20480;-81
2021/05/07 11:58:39;;;;;;;4.28;0.90;;;10.60;90.00;;;;;;4805893;29;20049;-84
2021/05/07 12:01:29;;;;;;;;;;;;;;;;;;;;;
2021/05/07 12:04:03;;;;;;;4.00;1.20;;;10.80;84.90;;;;;;4803697;29;20174;-80
2021/05/07 12:06:30;;;;;;;2.28;1.08;;;11.80;84.50;;;;;;4805692;29;20054;-82
2021/05/07 12:09:18;;;;;;;5.15;1.25;;;11.00;85.90;;;;;;4806157;29;20070;-79
2021/05/07 12:12:01;;;;;;;5.00;1.35;;;11.40;83.50;;;;;;4805352;29;20058;-75
2021/05/07 12:14:45;;;;;;;3.88;1.30;;;10.70;83.80;;;;;;4804357;29;20053;-84
2021/05/07 12:17:11;;;;;;;3.97;1.35;;;10.70;85.90;;;;;;4803546;29;20045;-84
2021/05/07 12:19:40;;;;;;;10.48;1.02;;;10.80;86.90;;;;;;4805202;29;20039;-85
2021/05/07 12:22:05;;;;;;;3.60;1.00;;;10.80;86.90;;;;;;4790448;29;20042;-85
2021/05/07 12:24:31;;;;;;;3.40;0.90;;;10.80;86.30;;;;;;4789960;29;20063;-80
2021/05/07 12:26:57;;;;;;;6.00;1.17;;;10.90;85.30;;;;;;4803498;29;20141;-81
2021/05/07 12:29:36;;;;;;;19.25;2.13;;;11.00;86.00;;;;;;4806214;29;20124;-81
2021/05/07 12:32:03;;;;;;;6.40;1.48;;;11.10;83.00;;;;;;4803642;29;20043;-79
2021/05/07 12:34:35;;;;;;;6.38;1.42;;;11.10;85.00;;;;;;4806185;29;20403;-80
2021/05/07 12:37:03;;;;;;;6.85;1.35;;;11.70;86.90;;;;;;4804677;29;20436;-82
2021/05/07 12:39:32;;;;;;;5.55;1.52;;;10.90;85.20;;;;;;4790550;29;20041;-80
2021/05/07 12:42:00;;;;;;;2.55;1.10;;;10.70;81.10;;;;;;4803699;29;20227;-79
2021/05/07 12:44:26;;;;;;;7.80;1.00;;;10.80;80.50;;;;;;4806777;29;20476;-76
2021/05/07 12:46:52;;;;;;;10.45;2.03;;;10.80;81.30;;;;;;4802635;29;20047;-78
2021/05/07 12:49:19;;;;;;;3.38;1.80;;;10.70;80.40;;;;;;4784866;29;20055;-77
2021/05/07 12:51:45;;;;;;;14.02;1.70;;;10.60;82.40;;;;;;4797234;29;20036;-81
2021/05/07 12:54:13;;;;;;;8.98;1.60;;;10.50;84.40;;;;;;4803334;29;20046;-79
2021/05/07 12:56:45;;;;;;;6.75;1.50;;;10.80;86.80;;;;;;4806720;29;20051;-78
2021/05/07 12:59:11;;;;;;;3.80;1.30;;;10.60;88.40;;;;;;4790344;29;20063;-78
2021/05/07 13:01:37;;;;;;;4.05;1.40;;;10.70;88.30;;;;;;4806908;29;20053;-76
2021/05/07 13:04:06;;;;;;;8.52;1.38;;;10.80;87.50;;;;;;4805354;29;20474;-73
2021/05/07 13:06:32;;;;;;;3.15;1.10;;;10.80;85.70;;;;;;4796231;29;20043;-72
2021/05/07 13:08:58;;;;;;;6.32;1.10;;;10.70;82.90;;;;;;4801932;29;20045;-74
2021/05/07 13:11:23;;;;;;;9.00;1.20;;;10.90;81.60;;;;;;4805197;29;20072;-74
2021/05/07 13:13:49;;;;;;;7.22;1.25;;;10.70;81.50;;;;;;4787573;29;20100;-74
2021/05/07 13:16:15;;;;;;;6.38;1.25;;;10.60;79.70;;;;;;4806096;29;20050;-74
2021/05/07 13:18:41;;;;;;;3.60;1.10;;;10.50;80.10;;;;;;4790273;29;20122;-74